createdAt,value
2019-05-07T17:00:54.129Z,17.3
2019-05-07T17:01:37.653Z,31.7
2019-05-07T17:02:41.556Z,20.4
2019-05-07T17:03:44.169Z,18.8
2019-05-07T17:04:46.034Z,17.8
2019-05-07T17:05:47.900Z,18.1
2019-05-07T17:06:51.737Z,17.1
2019-05-07T17:07:54.039Z,18.4
2019-05-07T17:08:55.642Z,17.5
2019-05-07T17:09:57.222Z,18.5
2019-05-07T17:10:59.087Z,18.5
2019-05-07T17:12:00.960Z,18.1
2019-05-07T17:13:04.348Z,17.4
2019-05-07T17:14:06.218Z,18.5
2019-05-07T17:15:08.087Z,18.1
2019-05-07T17:16:12.192Z,18.6
2019-05-07T17:17:14.224Z,18.1
2019-05-07T17:18:16.148Z,18.5
2019-05-07T17:19:18.023Z,18.2
2019-05-07T17:20:21.847Z,18.6
2019-05-07T17:21:23.840Z,17.8
2019-05-07T17:22:25.703Z,19
2019-05-07T17:23:45.251Z,18.9
2019-05-07T17:24:47.120Z,19.1
2019-05-07T17:25:48.988Z,19.9
2019-05-07T17:26:53.185Z,18.4
2019-05-07T17:27:55.044Z,19.8
2019-05-07T18:33:36.774Z,16.9
2019-05-07T18:34:38.649Z,18.6
2019-05-07T18:35:42.434Z,20.2
2019-05-07T18:36:44.391Z,20
2019-05-07T18:37:46.258Z,20.2
2019-05-07T19:45:43.325Z,22.6
2019-05-07T19:46:45.235Z,26.1
2019-05-07T19:47:47.118Z,25.2
2019-05-07T19:48:48.991Z,24.4
2019-05-07T19:49:52.883Z,24.7
2019-05-07T19:50:54.765Z,24.1
2019-05-07T19:51:56.641Z,25.2
2019-05-07T19:52:58.221Z,24.5
2019-05-07T19:54:02.451Z,23.9
2019-05-07T19:55:05.780Z,23.8
2019-05-07T19:56:07.652Z,24
2019-05-07T19:57:11.348Z,23.8
2019-05-07T19:58:13.432Z,24.4
2019-05-07T19:59:15.021Z,24.2
2019-05-07T20:00:16.892Z,23.6
2019-05-07T20:01:18.765Z,23.8
2019-05-07T20:02:22.604Z,24.5
2019-05-07T20:03:24.709Z,24.6
2019-05-07T20:04:26.598Z,24.7
2019-05-07T20:05:28.489Z,24.9
2019-05-07T20:06:32.917Z,23.9
2019-05-07T20:07:34.806Z,24.3
2019-05-07T20:08:36.695Z,23.8
2019-05-07T20:09:38.632Z,23.9
2019-05-07T20:10:42.850Z,24.6
2019-05-07T20:11:44.456Z,24.7
2019-05-07T20:12:46.348Z,25.2
2019-05-07T20:13:47.974Z,24.7
2019-05-07T20:14:52.170Z,25
2019-05-07T20:15:54.071Z,25.6
2019-05-07T20:16:55.669Z,25.7
2019-05-07T20:17:57.558Z,25.7
2019-05-07T20:18:59.153Z,26.4
2019-05-07T20:20:03.504Z,25.7
2019-05-07T20:21:05.394Z,26.3
2019-05-07T20:22:07.303Z,25.9
2019-05-07T20:23:09.204Z,27.2
2019-05-07T20:24:13.390Z,26.3
2019-05-07T20:25:22.994Z,26.2
2019-05-07T20:26:24.331Z,26.3
2019-05-07T20:27:26.241Z,28.2
2019-05-07T20:28:28.115Z,26.8
2019-05-07T20:29:29.725Z,27.7
2019-05-07T20:30:34.071Z,26.7
2019-05-07T20:31:35.970Z,26.6
2019-05-07T20:32:37.591Z,26.7
2019-05-07T20:33:39.187Z,26.9
2019-05-07T20:34:43.275Z,27.1
2019-05-07T20:35:44.746Z,27.4
2019-05-07T20:36:46.635Z,26.8
2019-05-07T20:37:48.523Z,26
2019-05-07T20:38:52.554Z,27.5
2019-05-07T20:39:54.147Z,27
2019-05-07T20:40:55.740Z,27
2019-05-07T20:41:57.340Z,26.8
2019-05-07T20:42:59.433Z,28
2019-05-07T20:44:03.754Z,26.9
2019-05-07T20:45:05.369Z,27.4
2019-05-07T20:46:07.260Z,28.5
2019-05-07T20:47:09.144Z,27.4
2019-05-07T20:48:10.743Z,27.2
2019-05-07T20:49:14.351Z,27.1
2019-05-07T20:50:16.226Z,27.8
2019-05-07T20:51:18.093Z,28.7
2019-05-07T20:52:19.685Z,28.4
2019-05-07T20:53:23.279Z,29.1
2019-05-07T20:54:25.146Z,29.1
2019-05-07T20:55:34.918Z,29.6
2019-05-07T20:56:36.780Z,28.9
2019-05-07T20:57:38.376Z,29
2019-05-07T20:58:39.968Z,28.6
2019-05-07T20:59:41.838Z,29.5
2019-05-07T21:00:44.866Z,28.9
2019-05-07T21:01:46.739Z,28.4
2019-05-07T21:02:49.665Z,30
2019-05-07T21:03:53.598Z,28.8
2019-05-07T21:04:55.483Z,28.9
2019-05-07T21:05:57.354Z,28.5
2019-05-07T21:06:59.222Z,29.8
2019-05-07T21:08:00.529Z,30.2
2019-05-07T21:09:02.394Z,30.1
2019-05-07T21:10:03.987Z,30.4
2019-05-07T21:11:05.857Z,30.6
2019-05-07T21:12:07.454Z,29
2019-05-07T21:13:23.844Z,30.6
2019-05-07T21:14:28.793Z,29.1
2019-05-07T21:15:32.777Z,29.5
2019-05-07T21:16:34.873Z,28.8
2019-05-07T21:17:36.736Z,30.3
2019-05-07T21:18:38.590Z,30.2
2019-05-07T21:19:42.481Z,29.2
2019-05-07T21:20:44.588Z,29.6
2019-05-07T21:21:46.456Z,30
2019-05-07T21:22:48.328Z,30.6
2019-05-07T21:23:52.419Z,29.3
2019-05-07T21:24:54.896Z,29.6
2019-05-07T21:25:56.791Z,29.2
2019-05-07T21:26:58.648Z,29.6
2019-05-07T21:28:02.278Z,29.9
2019-05-07T21:29:04.664Z,31.4
2019-05-07T21:30:06.530Z,30.7
2019-05-07T21:31:08.121Z,31.4
2019-05-07T21:32:12.133Z,31.6
2019-05-07T21:33:14.188Z,29.6
2019-05-07T21:34:16.058Z,30.1
2019-05-07T21:35:17.663Z,30
2019-05-07T21:36:19.517Z,30.7
2019-05-07T21:37:23.879Z,31.8
2019-05-07T21:38:25.747Z,32.5
2019-05-07T21:39:27.618Z,31.9
2019-05-07T21:40:29.207Z,32.7
2019-05-07T21:41:33.844Z,31.7
2019-05-07T21:42:35.724Z,31.8
2019-05-07T21:43:37.313Z,31.5
2019-05-07T21:44:39.183Z,31.6
2019-05-07T21:45:43.256Z,31.1
2019-05-07T21:46:45.126Z,31.6
2019-05-07T21:47:46.995Z,29.3
2019-05-07T21:48:48.866Z,32.7
2019-05-07T21:49:50.460Z,32.8
2019-05-07T21:50:53.475Z,32.3
2019-05-07T21:51:56.134Z,32
2019-05-07T21:52:58.004Z,32.1
2019-05-07T21:53:59.877Z,33.4
2019-05-07T21:55:03.554Z,31.8
2019-05-07T21:56:06.870Z,31.6
2019-05-07T21:57:08.738Z,30.8
2019-05-07T21:58:12.692Z,30.1
2019-05-07T21:59:14.562Z,30.3
2019-05-07T22:00:16.433Z,31.2
2019-05-07T22:01:18.304Z,31
2019-05-07T22:02:22.473Z,30.9
2019-05-07T22:03:24.501Z,30.7
2019-05-07T22:04:26.364Z,30.1
2019-05-07T22:05:28.247Z,31
2019-05-07T22:06:30.131Z,29.2
2019-05-07T22:07:31.721Z,30.5
2019-05-07T22:08:33.874Z,29
2019-05-07T22:09:35.440Z,28.7
2019-05-07T22:10:37.019Z,29
2019-05-07T22:11:38.887Z,28.9
2019-05-07T22:12:40.811Z,28.6
2019-05-07T22:13:45.026Z,27.2
2019-05-07T22:14:46.892Z,27.4
2019-05-07T22:15:48.767Z,28
2019-05-07T22:16:54.860Z,27.4
2019-05-07T22:17:56.437Z,27.9
2019-05-07T22:18:58.023Z,28
2019-05-07T22:19:59.888Z,29
2019-05-07T22:21:03.997Z,27.9
2019-05-07T22:22:05.861Z,26.5
2019-05-07T22:23:07.726Z,28.2
2019-05-07T22:24:09.589Z,27.5
2019-05-07T22:25:13.763Z,27.7
2019-05-07T22:26:27.500Z,26.9
2019-05-07T22:27:29.383Z,28.3
2019-05-07T22:28:33.179Z,28.8
2019-05-07T22:29:35.045Z,30
2019-05-07T22:30:36.910Z,30.3
2019-05-07T22:31:38.778Z,31.1
2019-05-07T22:32:44.330Z,30.1
2019-05-07T22:33:46.197Z,30.4
2019-05-07T22:34:48.507Z,31.1
2019-05-07T22:35:51.939Z,30.2
2019-05-07T22:36:56.538Z,29.5
2019-05-07T22:37:58.118Z,30.8
2019-05-07T22:39:02.430Z,31
2019-05-07T22:40:04.415Z,31.9
2019-05-07T22:41:06.283Z,30.4
2019-05-07T22:42:08.153Z,29.6
2019-05-07T22:43:10.021Z,31.1
2019-05-07T22:44:13.490Z,30.5
2019-05-07T22:45:15.351Z,32.3
2019-05-07T22:46:17.216Z,30.5
2019-05-07T22:47:18.807Z,30
2019-05-07T22:48:22.746Z,29.9
2019-05-07T22:49:24.786Z,31.1
2019-05-07T22:50:26.652Z,30.1
2019-05-07T22:51:28.243Z,29.6
2019-05-07T22:52:30.117Z,28.5
2019-05-07T22:53:33.917Z,30.7
2019-05-07T22:54:35.784Z,29.9
2019-05-07T22:55:37.650Z,31.8
2019-05-07T22:56:39.246Z,30.8
2019-05-07T22:57:43.408Z,31.5
2019-05-07T22:58:45.267Z,30.8
2019-05-07T22:59:46.853Z,32
2019-05-07T23:00:48.711Z,31.8
2019-05-07T23:01:55.583Z,32.1
2019-05-07T23:02:57.149Z,32.2
2019-05-07T23:03:59.019Z,30.6
2019-05-07T23:05:03.261Z,31.8
2019-05-07T23:06:05.136Z,30.8
2019-05-07T23:07:06.980Z,31.1
2019-05-07T23:08:08.857Z,31.2
2019-05-07T23:09:12.593Z,31
2019-05-07T23:10:14.594Z,30.8
2019-05-07T23:11:16.458Z,32.4
2019-05-07T23:12:18.325Z,31.3
2019-05-07T23:13:22.408Z,32.4
2019-05-07T23:14:24.439Z,33.3
2019-05-07T23:15:26.302Z,33.5
2019-05-07T23:16:28.168Z,32.4
2019-05-07T23:17:29.745Z,32.7
2019-05-07T23:18:33.088Z,33
2019-05-07T23:19:34.955Z,32.6
2019-05-07T23:20:36.824Z,33.6
2019-05-07T23:21:38.415Z,33.3
2019-05-07T23:22:40.285Z,33.9
2019-05-07T23:23:43.466Z,33.7
2019-05-07T23:24:45.044Z,33.5
2019-05-07T23:25:46.921Z,33.9
2019-05-07T23:26:54.182Z,34.2
2019-05-07T23:27:56.053Z,34.5
2019-05-07T23:28:57.922Z,35
2019-05-07T23:30:02.308Z,34.8
2019-05-07T23:31:04.385Z,33.7
2019-05-07T23:32:06.253Z,32.7
2019-05-07T23:33:07.845Z,34.1
2019-05-07T23:34:09.448Z,33.3
2019-05-07T23:35:13.636Z,32.9
2019-05-07T23:36:15.238Z,33.1
2019-05-07T23:37:17.116Z,32.1
2019-05-07T23:38:18.985Z,31.8
2019-05-07T23:39:20.861Z,32.8
2019-05-07T23:40:24.433Z,30.9
2019-05-07T23:41:26.027Z,30.2
2019-05-07T23:42:27.897Z,31.1
2019-05-07T23:43:29.771Z,31.4
2019-05-07T23:44:31.642Z,30.5
2019-05-07T23:45:33.510Z,30.4
2019-05-07T23:46:35.101Z,29
2019-05-07T23:47:36.969Z,29.6
2019-05-07T23:48:38.835Z,30.4
2019-05-07T23:49:42.747Z,31.3
2019-05-07T23:50:44.892Z,29.8
2019-05-07T23:51:46.216Z,31.6
2019-05-07T23:52:48.086Z,29.9
2019-05-07T23:53:51.851Z,30.8
2019-05-07T23:54:53.781Z,30.4
2019-05-07T23:55:55.648Z,30.3
2019-05-07T23:57:15.616Z,30.5
2019-05-07T23:58:17.219Z,30
2019-05-07T23:59:19.082Z,29.8
